Impacts TAF Board
For situational awareness. Not to be used for flight planning purposes.
IDs:

KGJT - Grand Junction Rgnl, CO, US

Issued at 1724 UTC 17 Nov 2019
Updated at 1951 UTC 17 Nov 2019
Potential Impact None Slight Moderate High
Time1853Z 17/20Z 17/21Z 17/22Z 17/23Z 18/00Z 18/01Z 18/02Z 18/03Z 18/04Z 18/05Z 18/06Z 18/07Z 18/08Z>>
Type OBS PRVL PRVL PRVL PRVL PRVL PRVL PRVL PRVL PRVL PRVL PRVL PRVL PRVL
VIS 10 >6 >6 >6 >6 >6 >6 >6 >6 >6 >6 >6 >6 >6
CIG -- -- -- -- -- -- -- -- -- -- -- -- -- --
Cover CLR SCT SCT SCT SCT SCT SCT SCT SCT SCT SCT SCT SCT SCT
FltCat VFR VFR VFR VFR VFR VFR VFR VFR VFR VFR VFR VFR VFR VFR
WX -- -- -- -- -- -- -- -- -- -- -- -- -- --
WDir VRB 310 310 310 310 310 310 80 80 80 80 80 80 80
WSpd 0 5 5 5 5 5 5 5 5 5 5 5 5 5
WGst -- -- -- -- -- -- -- -- -- -- -- -- -- --
Raw TAF
KGJT 171724Z 1718/1818 VRB04KT P6SM FEW250
  FM172000 31005KT P6SM SCT250
  FM180200 08005KT P6SM SCT250
  FM180900 11005KT P6SM SKC


Raw METAR
KGJT 171853Z 00000KT 10SM CLR 11/M07 A3030 RMK AO2 SLP238 T01111067
KGJT 171753Z 14006KT 10SM CLR 10/M07 A3032 RMK AO2 SLP242 T01001067 10100 21039 58001
KGJT 171653Z 15010KT 10SM CLR 08/M07 A3034 RMK AO2 SLP256 T00781067

METAR Board
Radar Display
Forecast Discussion
For situational awareness. Not to be used for flight planning purposes.